Time,TemperatureF,DewpointF,PressureIn,WindDirection,WindDirectionDegrees,WindSpeedMPH,WindSpeedGustMPH,Humidity,HourlyPrecipIn,Conditions,Clouds,dailyrainin,SoftwareType,DateUTC
2013-05-07 00:00:00,54.9,31.0,30.15,East,90,2.5,5.8,40,0.00,,---,0.00,VWS V14.01,2013-05-07 04:00:00,
2013-05-07 00:01:00,54.9,31.0,30.15,ESE,112,3.6,4.0,40,0.00,,---,0.00,VWS V14.01,2013-05-07 04:01:00,
2013-05-07 00:02:00,54.7,30.9,30.15,ENE,68,2.0,5.4,40,0.00,,---,0.00,VWS V14.01,2013-05-07 04:02:00,
2013-05-07 00:07:00,54.5,31.3,30.15,East,90,1.6,3.6,41,0.00,,---,0.00,VWS V14.01,2013-05-07 04:07:00,
2013-05-07 00:10:00,54.7,30.9,30.15,ENE,68,2.0,5.4,40,0.00,,---,0.00,VWS V14.01,2013-05-07 04:10:00,
2013-05-07 00:12:00,54.5,31.3,30.15,ESE,112,2.5,8.1,41,0.00,,---,0.00,VWS V14.01,2013-05-07 04:12:00,
2013-05-07 00:18:00,54.3,31.7,30.15,ESE,112,2.5,3.8,42,0.00,,---,0.00,VWS V14.01,2013-05-07 04:18:00,
2013-05-07 00:20:00,54.5,31.3,30.15,ESE,112,2.5,8.1,41,0.00,,---,0.00,VWS V14.01,2013-05-07 04:20:00,
2013-05-07 00:23:00,54.3,31.7,30.15,SE,135,5.4,5.4,42,0.00,,---,0.00,VWS V14.01,2013-05-07 04:23:00,
2013-05-07 00:28:00,54.3,31.7,30.15,ESE,112,6.0,7.4,42,0.00,,---,0.00,VWS V14.01,2013-05-07 04:28:00,
2013-05-07 00:30:00,54.3,31.7,30.15,East,90,5.4,8.7,42,0.00,,---,0.00,VWS V14.01,2013-05-07 04:30:00,
2013-05-07 00:33:00,54.1,31.6,30.15,ESE,112,2.9,4.0,42,0.00,,---,0.00,VWS V14.01,2013-05-07 04:33:00,
2013-05-07 00:38:00,54.0,32.0,30.15,SE,135,4.3,8.7,43,0.00,,---,0.00,VWS V14.01,2013-05-07 04:38:00,
2013-05-07 00:40:00,54.1,31.6,30.15,ESE,112,4.0,9.8,42,0.00,,---,0.00,VWS V14.01,2013-05-07 04:40:00,
2013-05-07 00:43:00,54.0,32.6,30.15,East,90,2.5,2.7,44,0.00,,---,0.00,VWS V14.01,2013-05-07 04:43:00,
2013-05-07 00:48:00,53.8,33.0,30.15,ENE,68,7.4,7.4,45,0.00,,---,0.00,VWS V14.01,2013-05-07 04:48:00,
2013-05-07 00:50:00,54.0,32.6,30.15,NE,45,2.7,8.7,44,0.00,,---,0.00,VWS V14.01,2013-05-07 04:50:00,
2013-05-07 00:53:00,53.8,33.5,30.15,ESE,112,5.6,5.6,46,0.00,,---,0.00,VWS V14.01,2013-05-07 04:53:00,
2013-05-07 00:58:00,53.6,33.3,30.15,ENE,68,2.5,7.2,46,0.00,,---,0.00,VWS V14.01,2013-05-07 04:58:00,
2013-05-07 01:00:00,53.8,33.5,30.15,East,90,5.4,7.4,46,0.00,,---,0.00,VWS V14.01,2013-05-07 05:00:00,
2013-05-07 01:04:00,53.6,33.9,30.15,ENE,68,3.8,7.4,47,0.00,,---,0.00,VWS V14.01,2013-05-07 05:04:00,
2013-05-07 01:09:00,53.6,34.4,30.15,ESE,112,3.8,7.4,48,0.00,,---,0.00,VWS V14.01,2013-05-07 05:09:00,
2013-05-07 01:10:00,53.6,33.9,30.15,ENE,68,2.5,7.2,47,0.00,,---,0.00,VWS V14.01,2013-05-07 05:10:00,
2013-05-07 01:14:00,53.6,34.9,30.15,ESE,112,2.2,3.4,49,0.00,,---,0.00,VWS V14.01,2013-05-07 05:14:00,
2013-05-07 01:18:00,53.6,34.9,30.15,ENE,68,3.1,3.1,49,0.00,,---,0.00,VWS V14.01,2013-05-07 05:18:00,
2013-05-07 01:19:00,53.6,35.4,30.15,East,90,4.3,7.2,50,0.00,,---,0.00,VWS V14.01,2013-05-07 05:19:00,
2013-05-07 01:20:00,53.6,34.9,30.15,East,90,3.1,5.6,49,0.00,,---,0.00,VWS V14.01,2013-05-07 05:20:00,
2013-05-07 01:24:00,53.6,35.9,30.15,East,90,2.7,3.4,51,0.00,,---,0.00,VWS V14.01,2013-05-07 05:24:00,
2013-05-07 01:29:00,53.6,35.4,30.12,East,90,2.9,3.6,50,0.00,,---,0.00,VWS V14.01,2013-05-07 05:29:00,
2013-05-07 01:30:00,53.6,35.9,30.15,ENE,68,3.4,7.2,51,0.00,,---,0.00,VWS V14.01,2013-05-07 05:30:00,
2013-05-07 01:34:00,53.6,36.9,30.12,ENE,68,3.4,4.9,53,0.00,,---,0.00,VWS V14.01,2013-05-07 05:34:00,
2013-05-07 01:39:00,53.6,37.8,30.12,ESE,112,2.9,6.0,55,0.00,,---,0.00,VWS V14.01,2013-05-07 05:39:00,
2013-05-07 01:40:00,53.8,36.6,30.12,ESE,112,3.8,6.3,52,0.00,,---,0.00,VWS V14.01,2013-05-07 05:40:00,
2013-05-07 01:44:00,53.6,38.8,30.12,East,90,5.8,5.8,57,0.00,,---,0.00,VWS V14.01,2013-05-07 05:44:00,
2013-05-07 01:49:00,53.6,39.6,30.12,ENE,68,5.4,6.0,59,0.00,,---,0.00,VWS V14.01,2013-05-07 05:49:00,
2013-05-07 01:50:00,53.6,38.8,30.12,ENE,68,2.5,6.0,57,0.00,,---,0.00,VWS V14.01,2013-05-07 05:50:00,
2013-05-07 01:54:00,53.8,40.7,30.12,East,90,4.3,4.5,61,0.00,,---,0.00,VWS V14.01,2013-05-07 05:54:00,
2013-05-07 01:59:00,53.8,41.5,30.12,ENE,68,2.7,6.5,63,0.00,,---,0.00,VWS V14.01,2013-05-07 05:59:00,
2013-05-07 02:00:00,53.6,40.1,30.12,ESE,112,4.0,6.0,60,0.00,,---,0.00,VWS V14.01,2013-05-07 06:00:00,
2013-05-07 02:05:00,53.6,41.7,30.12,ENE,68,5.6,6.5,64,0.00,,---,0.00,VWS V14.01,2013-05-07 06:05:00,
2013-05-07 02:10:00,53.8,42.7,30.12,East,90,4.9,6.5,66,0.00,,---,0.00,VWS V14.01,2013-05-07 06:10:00,
2013-05-07 02:15:00,53.8,43.1,30.09,ENE,68,3.1,5.6,67,0.00,,---,0.00,VWS V14.01,2013-05-07 06:15:00,
2013-05-07 02:20:00,53.8,44.2,30.09,ENE,68,2.5,6.5,70,0.00,,---,0.00,VWS V14.01,2013-05-07 06:20:00,
2013-05-07 02:25:00,53.8,44.6,30.09,SE,135,2.2,4.7,71,0.00,,---,0.00,VWS V14.01,2013-05-07 06:25:00,
2013-05-07 02:30:00,53.8,44.6,30.09,East,90,2.9,4.9,71,0.00,,---,0.00,VWS V14.01,2013-05-07 06:30:00,
2013-05-07 02:35:00,53.8,45.0,30.09,NE,45,4.9,4.9,72,0.00,,---,0.00,VWS V14.01,2013-05-07 06:35:00,
2013-05-07 02:40:00,53.8,45.3,30.09,East,90,3.6,6.5,73,0.00,,---,0.00,VWS V14.01,2013-05-07 06:40:00,
2013-05-07 02:45:00,53.8,45.3,30.09,ENE,68,1.6,3.4,73,0.00,,---,0.00,VWS V14.01,2013-05-07 06:45:00,
2013-05-07 02:50:00,53.8,45.3,30.09,East,90,4.0,4.9,73,0.00,,---,0.00,VWS V14.01,2013-05-07 06:50:00,
2013-05-07 02:55:00,53.8,45.7,30.09,ENE,68,2.0,4.0,74,0.00,,---,0.00,VWS V14.01,2013-05-07 06:55:00,
2013-05-07 03:00:00,53.6,45.5,30.09,ENE,68,5.4,6.0,74,0.00,,---,0.00,VWS V14.01,2013-05-07 07:00:00,
2013-05-07 03:06:00,53.6,45.5,30.09,ENE,68,2.7,4.0,74,0.00,,---,0.00,VWS V14.01,2013-05-07 07:06:00,
2013-05-07 03:10:00,53.6,45.5,30.09,ESE,112,2.0,6.0,74,0.00,,---,0.00,VWS V14.01,2013-05-07 07:10:00,
2013-05-07 03:11:00,53.6,45.9,30.09,ENE,68,4.9,5.4,75,0.00,,---,0.00,VWS V14.01,2013-05-07 07:11:00,
2013-05-07 03:16:00,53.6,45.9,30.09,ENE,68,5.8,5.8,75,0.00,,---,0.00,VWS V14.01,2013-05-07 07:16:00,
2013-05-07 03:20:00,53.6,45.9,30.09,ENE,68,3.8,6.5,75,0.00,,---,0.00,VWS V14.01,2013-05-07 07:20:00,
2013-05-07 03:21:00,53.6,45.9,30.09,NE,45,3.1,5.8,75,0.00,,---,0.00,VWS V14.01,2013-05-07 07:21:00,
2013-05-07 03:26:00,53.4,46.1,30.09,ENE,68,5.4,5.6,76,0.00,,---,0.00,VWS V14.01,2013-05-07 07:26:00,
2013-05-07 03:30:00,53.6,45.9,30.09,ENE,68,4.3,5.8,75,0.00,,---,0.00,VWS V14.01,2013-05-07 07:30:00,
2013-05-07 03:31:00,53.4,46.1,30.09,East,90,7.4,7.4,76,0.00,,---,0.00,VWS V14.01,2013-05-07 07:31:00,
2013-05-07 03:36:00,53.4,46.1,30.09,ENE,68,3.1,4.0,76,0.00,,---,0.00,VWS V14.01,2013-05-07 07:36:00,
2013-05-07 03:40:00,53.4,46.1,30.09,East,90,2.7,7.4,76,0.00,,---,0.00,VWS V14.01,2013-05-07 07:40:00,
2013-05-07 03:41:00,53.2,45.9,30.09,East,90,2.5,4.0,76,0.00,,---,0.00,VWS V14.01,2013-05-07 07:41:00,
2013-05-07 03:46:00,53.2,45.9,30.09,SE,135,3.4,3.4,76,0.00,,---,0.00,VWS V14.01,2013-05-07 07:46:00,
2013-05-07 03:50:00,53.2,45.9,30.09,East,90,2.7,4.0,76,0.00,,---,0.00,VWS V14.01,2013-05-07 07:50:00,
2013-05-07 03:51:00,53.2,45.9,30.09,ENE,68,2.7,3.6,76,0.00,,---,0.00,VWS V14.01,2013-05-07 07:51:00,
2013-05-07 03:56:00,53.2,46.2,30.09,NE,45,3.6,6.3,77,0.00,,---,0.00,VWS V14.01,2013-05-07 07:56:00,
2013-05-07 04:00:00,53.2,45.9,30.09,ENE,68,2.2,3.6,76,0.00,,---,0.00,VWS V14.01,2013-05-07 08:00:00,
2013-05-07 04:01:00,53.2,46.2,30.09,ESE,112,3.1,6.3,77,0.00,,---,0.00,VWS V14.01,2013-05-07 08:01:00,
2013-05-07 04:06:00,53.2,46.2,30.09,ESE,112,2.9,3.6,77,0.00,,---,0.00,VWS V14.01,2013-05-07 08:06:00,
2013-05-07 04:10:00,53.2,46.2,30.09,ESE,112,1.3,6.3,77,0.00,,---,0.00,VWS V14.01,2013-05-07 08:10:00,
2013-05-07 04:12:00,53.2,46.2,30.09,ESE,112,2.5,4.0,77,0.00,,---,0.00,VWS V14.01,2013-05-07 08:12:00,
2013-05-07 04:17:00,53.1,46.0,30.09,ENE,68,4.9,5.4,77,0.00,,---,0.00,VWS V14.01,2013-05-07 08:17:00,
2013-05-07 04:20:00,53.2,46.2,30.09,NE,45,3.6,4.0,77,0.00,,---,0.00,VWS V14.01,2013-05-07 08:20:00,
2013-05-07 04:22:00,52.9,45.9,30.09,ENE,68,2.7,7.6,77,0.00,,---,0.00,VWS V14.01,2013-05-07 08:22:00,
2013-05-07 04:27:00,52.9,45.9,30.09,East,90,2.7,5.4,77,0.00,,---,0.00,VWS V14.01,2013-05-07 08:27:00,
2013-05-07 04:30:00,52.9,45.9,30.09,ESE,112,3.1,7.6,77,0.00,,---,0.00,VWS V14.01,2013-05-07 08:30:00,
2013-05-07 04:32:00,52.9,46.2,30.09,ENE,68,3.8,5.4,78,0.00,,---,0.00,VWS V14.01,2013-05-07 08:32:00,
2013-05-07 04:37:00,52.7,46.0,30.09,East,90,2.9,6.3,78,0.00,,---,0.00,VWS V14.01,2013-05-07 08:37:00,
2013-05-07 04:40:00,52.9,46.2,30.09,ENE,68,3.4,5.4,78,0.00,,---,0.00,VWS V14.01,2013-05-07 08:40:00,
2013-05-07 04:42:00,52.9,46.2,30.09,ENE,68,4.9,6.3,78,0.00,,---,0.00,VWS V14.01,2013-05-07 08:42:00,
2013-05-07 04:47:00,52.9,46.5,30.09,ENE,68,4.9,5.6,79,0.00,,---,0.00,VWS V14.01,2013-05-07 08:47:00,
2013-05-07 04:50:00,52.9,46.2,30.09,East,90,5.6,6.3,78,0.00,,---,0.00,VWS V14.01,2013-05-07 08:50:00,
2013-05-07 04:52:00,52.9,46.5,30.09,ENE,68,2.9,6.3,79,0.00,,---,0.00,VWS V14.01,2013-05-07 08:52:00,
2013-05-07 04:57:00,52.9,46.5,30.09,ENE,68,2.7,3.6,79,0.00,,---,0.00,VWS V14.01,2013-05-07 08:57:00,
2013-05-07 05:00:00,52.9,46.6,30.09,East,90,3.1,6.3,79,0.00,,---,0.00,VWS V14.01,2013-05-07 09:00:00,
2013-05-07 05:02:00,52.9,46.5,30.09,East,90,3.8,5.4,79,0.00,,---,0.00,VWS V14.01,2013-05-07 09:02:00,
2013-05-07 05:07:00,52.9,46.5,30.09,ENE,68,3.1,6.0,79,0.00,,---,0.00,VWS V14.01,2013-05-07 09:07:00,
2013-05-07 05:10:00,52.9,46.6,30.09,East,90,3.8,5.4,79,0.00,,---,0.00,VWS V14.01,2013-05-07 09:10:00,
2013-05-07 05:12:00,52.7,46.4,30.06,East,90,5.6,6.0,79,0.00,,---,0.00,VWS V14.01,2013-05-07 09:12:00,
2013-05-07 05:18:00,52.7,46.4,30.06,ENE,68,5.4,7.4,79,0.00,,---,0.00,VWS V14.01,2013-05-07 09:18:00,
2013-05-07 05:20:00,52.7,46.4,30.06,East,90,5.6,6.0,79,0.00,,---,0.00,VWS V14.01,2013-05-07 09:20:00,
2013-05-07 05:23:00,52.5,46.2,30.06,ENE,68,4.0,4.3,79,0.00,,---,0.00,VWS V14.01,2013-05-07 09:23:00,
2013-05-07 05:28:00,52.5,46.5,30.09,ENE,68,4.3,6.3,80,0.00,,---,0.00,VWS V14.01,2013-05-07 09:28:00,
2013-05-07 05:30:00,52.7,46.4,30.06,East,90,4.3,7.4,79,0.00,,---,0.00,VWS V14.01,2013-05-07 09:30:00,
2013-05-07 05:33:00,52.5,46.5,30.09,ENE,68,4.0,5.8,80,0.00,,---,0.00,VWS V14.01,2013-05-07 09:33:00,
2013-05-07 05:38:00,52.5,46.5,30.09,East,90,4.0,7.4,80,0.00,,---,0.00,VWS V14.01,2013-05-07 09:38:00,
2013-05-07 05:40:00,52.5,46.5,30.09,East,90,5.8,6.5,80,0.00,,---,0.00,VWS V14.01,2013-05-07 09:40:00,
2013-05-07 05:43:00,52.5,46.5,30.06,ENE,68,3.4,3.8,80,0.00,,---,0.00,VWS V14.01,2013-05-07 09:43:00,
2013-05-07 05:48:00,52.5,46.5,30.06,ENE,68,2.7,6.0,80,0.00,,---,0.00,VWS V14.01,2013-05-07 09:48:00,
2013-05-07 05:50:00,52.5,46.5,30.06,East,90,3.6,7.4,80,0.00,,---,0.00,VWS V14.01,2013-05-07 09:50:00,
2013-05-07 05:53:00,52.5,46.5,30.06,East,90,6.0,6.0,80,0.00,,---,0.00,VWS V14.01,2013-05-07 09:53:00,
2013-05-07 05:58:00,52.5,46.5,30.09,East,90,3.6,6.0,80,0.00,,---,0.00,VWS V14.01,2013-05-07 09:58:00,
2013-05-07 06:00:00,52.5,46.5,30.06,ENE,68,4.3,6.0,80,0.00,,---,0.00,VWS V14.01,2013-05-07 10:00:00,
2013-05-07 06:03:00,52.3,46.4,30.09,ENE,68,1.6,4.0,80,0.00,,---,0.00,VWS V14.01,2013-05-07 10:03:00,
2013-05-07 06:08:00,52.3,46.4,30.09,ENE,68,4.3,5.8,80,0.00,,---,0.00,VWS V14.01,2013-05-07 10:08:00,
2013-05-07 06:10:00,52.5,46.5,30.09,ESE,112,4.0,6.0,80,0.00,,---,0.00,VWS V14.01,2013-05-07 10:10:00,
2013-05-07 06:13:00,52.3,46.4,30.09,ENE,68,2.5,3.8,80,0.00,,---,0.00,VWS V14.01,2013-05-07 10:13:00,
2013-05-07 06:19:00,52.2,46.2,30.09,East,90,6.0,7.6,80,0.00,,---,0.00,VWS V14.01,2013-05-07 10:19:00,
2013-05-07 06:20:00,52.3,46.4,30.09,ENE,68,3.8,5.8,80,0.00,,---,0.00,VWS V14.01,2013-05-07 10:20:00,
2013-05-07 06:24:00,52.3,46.4,30.09,NNE,22,2.7,5.8,80,0.00,,---,0.00,VWS V14.01,2013-05-07 10:24:00,
2013-05-07 06:29:00,52.3,46.7,30.09,NE,45,2.5,6.0,81,0.00,,---,0.00,VWS V14.01,2013-05-07 10:29:00,
2013-05-07 06:30:00,52.3,46.4,30.09,North,0,3.8,7.6,80,0.00,,---,0.00,VWS V14.01,2013-05-07 10:30:00,
2013-05-07 06:34:00,52.2,46.5,30.09,NE,45,4.7,5.4,81,0.00,,---,0.00,VWS V14.01,2013-05-07 10:34:00,
2013-05-07 06:39:00,52.3,46.7,30.09,East,90,3.8,5.6,81,0.00,,---,0.00,VWS V14.01,2013-05-07 10:39:00,
2013-05-07 06:40:00,52.2,46.5,30.09,NNW,338,2.2,6.0,81,0.00,,---,0.00,VWS V14.01,2013-05-07 10:40:00,
2013-05-07 06:44:00,52.3,46.7,30.12,ENE,68,4.9,7.2,81,0.00,,---,0.00,VWS V14.01,2013-05-07 10:44:00,
2013-05-07 06:49:00,52.2,46.5,30.12,East,90,5.8,7.8,81,0.00,,---,0.00,VWS V14.01,2013-05-07 10:49:00,
2013-05-07 06:50:00,52.2,46.5,30.12,East,90,3.8,7.6,81,0.00,,---,0.00,VWS V14.01,2013-05-07 10:50:00,
2013-05-07 06:54:00,52.2,46.5,30.12,ENE,68,3.6,6.0,81,0.00,,---,0.00,VWS V14.01,2013-05-07 10:54:00,
2013-05-07 06:59:00,52.2,46.5,30.12,ENE,68,3.8,6.0,81,0.00,,---,0.00,VWS V14.01,2013-05-07 10:59:00,
2013-05-07 07:00:00,52.2,46.5,30.12,East,90,4.7,7.8,81,0.00,,---,0.00,VWS V14.01,2013-05-07 11:00:00,
2013-05-07 07:04:00,52.3,46.7,30.12,NE,45,2.9,4.3,81,0.00,,---,0.00,VWS V14.01,2013-05-07 11:04:00,
2013-05-07 07:09:00,52.3,46.7,30.12,NNE,22,3.4,4.9,81,0.00,,---,0.00,VWS V14.01,2013-05-07 11:09:00,
2013-05-07 07:10:00,52.3,46.7,30.12,East,90,4.0,6.0,81,0.00,,---,0.00,VWS V14.01,2013-05-07 11:10:00,
2013-05-07 07:14:00,52.3,47.0,30.15,ENE,68,3.4,5.4,82,0.00,,---,0.00,VWS V14.01,2013-05-07 11:14:00,
2013-05-07 07:19:00,52.3,47.0,30.15,NNE,22,2.7,6.3,82,0.00,,---,0.00,VWS V14.01,2013-05-07 11:19:00,
2013-05-07 07:20:00,52.3,46.7,30.15,NNE,22,5.4,6.5,81,0.00,,---,0.00,VWS V14.01,2013-05-07 11:20:00,
2013-05-07 07:25:00,52.5,47.2,30.15,NE,45,2.0,4.0,82,0.00,,---,0.00,VWS V14.01,2013-05-07 11:25:00,
2013-05-07 07:30:00,52.5,47.2,30.12,ENE,68,2.2,5.6,82,0.00,,---,0.00,VWS V14.01,2013-05-07 11:30:00,
2013-05-07 07:35:00,52.5,47.2,30.12,ENE,68,4.5,6.0,82,0.00,,---,0.00,VWS V14.01,2013-05-07 11:35:00,
2013-05-07 07:40:00,52.5,47.2,30.12,ENE,68,5.6,7.4,82,0.00,,---,0.00,VWS V14.01,2013-05-07 11:40:00,
2013-05-07 07:45:00,52.7,47.4,30.12,NNE,22,4.9,6.3,82,0.00,,---,0.00,VWS V14.01,2013-05-07 11:45:00,
2013-05-07 07:50:00,52.9,47.5,30.12,ENE,68,3.6,6.3,82,0.00,,---,0.00,VWS V14.01,2013-05-07 11:50:00,
2013-05-07 07:55:00,52.9,47.5,30.12,East,90,6.3,6.3,82,0.00,,---,0.00,VWS V14.01,2013-05-07 11:55:00,
2013-05-07 08:00:00,52.9,47.5,30.12,East,90,4.9,6.5,82,0.00,,---,0.00,VWS V14.01,2013-05-07 12:00:00,
2013-05-07 08:05:00,52.9,47.5,30.12,ENE,68,4.0,7.6,82,0.00,,---,0.00,VWS V14.01,2013-05-07 12:05:00,
2013-05-07 08:10:00,52.9,47.5,30.12,ENE,68,5.6,8.7,82,0.00,,---,0.00,VWS V14.01,2013-05-07 12:10:00,
2013-05-07 08:15:00,52.9,47.5,30.12,NE,45,5.4,7.2,82,0.00,,---,0.00,VWS V14.01,2013-05-07 12:15:00,
2013-05-07 08:20:00,52.9,47.5,30.12,ENE,68,6.0,8.7,82,0.00,,---,0.00,VWS V14.01,2013-05-07 12:20:00,
2013-05-07 08:21:00,53.1,47.7,30.12,East,90,3.4,7.2,82,0.00,,---,0.00,VWS V14.01,2013-05-07 12:21:00,
2013-05-07 08:26:00,53.1,47.7,30.12,ENE,68,4.3,6.7,82,0.00,,---,0.00,VWS V14.01,2013-05-07 12:26:00,
2013-05-07 08:30:00,53.1,47.7,30.12,NE,45,3.8,7.2,82,0.00,,---,0.00,VWS V14.01,2013-05-07 12:30:00,
2013-05-07 08:31:00,53.2,47.9,30.15,East,90,6.5,6.7,82,0.00,,---,0.00,VWS V14.01,2013-05-07 12:31:00,
2013-05-07 08:36:00,53.2,47.9,30.15,ENE,68,7.8,9.8,82,0.00,,---,0.00,VWS V14.01,2013-05-07 12:36:00,
2013-05-07 08:40:00,53.2,47.9,30.15,NE,45,5.6,7.8,82,0.00,,---,0.00,VWS V14.01,2013-05-07 12:40:00,
2013-05-07 08:41:00,53.2,47.9,30.15,East,90,7.6,10.1,82,0.00,,---,0.00,VWS V14.01,2013-05-07 12:41:00,
2013-05-07 08:46:00,53.2,47.9,30.15,East,90,7.2,10.1,82,0.00,,---,0.00,VWS V14.01,2013-05-07 12:46:00,
2013-05-07 08:50:00,53.2,47.9,30.15,ENE,68,10.1,10.1,82,0.00,,---,0.00,VWS V14.01,2013-05-07 12:50:00,
2013-05-07 08:51:00,53.6,48.2,30.15,East,90,6.3,10.1,82,0.00,,---,0.00,VWS V14.01,2013-05-07 12:51:00,
2013-05-07 08:56:00,53.8,48.4,30.15,East,90,3.6,10.3,82,0.00,,---,0.00,VWS V14.01,2013-05-07 12:56:00,
2013-05-07 09:00:00,53.6,48.2,30.15,ESE,112,10.3,10.3,82,0.00,,---,0.00,VWS V14.01,2013-05-07 13:00:00,
2013-05-07 09:01:00,54.0,48.6,30.15,ENE,68,7.2,10.3,82,0.00,,---,0.00,VWS V14.01,2013-05-07 13:01:00,
2013-05-07 09:06:00,54.0,48.6,30.15,East,90,5.8,7.2,82,0.00,,---,0.00,VWS V14.01,2013-05-07 13:06:00,
2013-05-07 09:10:00,54.0,48.6,30.15,ENE,68,6.3,10.3,82,0.00,,---,0.00,VWS V14.01,2013-05-07 13:10:00,
2013-05-07 09:11:00,54.5,48.8,30.15,NNE,22,4.7,7.8,81,0.00,,---,0.00,VWS V14.01,2013-05-07 13:11:00,
2013-05-07 09:16:00,54.7,49.0,30.15,East,90,4.0,7.6,81,0.00,,---,0.00,VWS V14.01,2013-05-07 13:16:00,
2013-05-07 09:20:00,54.5,48.8,30.15,NE,45,3.1,7.8,81,0.00,,---,0.00,VWS V14.01,2013-05-07 13:20:00,
2013-05-07 09:22:00,55.2,49.2,30.15,ESE,112,7.2,7.6,80,0.00,,---,0.00,VWS V14.01,2013-05-07 13:22:00,
2013-05-07 09:27:00,55.8,49.0,30.15,ENE,68,5.4,7.8,78,0.00,,---,0.00,VWS V14.01,2013-05-07 13:27:00,
2013-05-07 09:30:00,55.2,49.2,30.15,ENE,68,4.0,8.1,80,0.00,,---,0.00,VWS V14.01,2013-05-07 13:30:00,
2013-05-07 09:32:00,55.8,48.0,30.15,East,90,7.2,8.5,75,0.00,,---,0.00,VWS V14.01,2013-05-07 13:32:00,
2013-05-07 09:37:00,56.5,47.2,30.15,ENE,68,5.8,8.5,71,0.00,,---,0.00,VWS V14.01,2013-05-07 13:37:00,
2013-05-07 09:40:00,55.8,48.0,30.15,East,90,3.8,8.5,75,0.00,,---,0.00,VWS V14.01,2013-05-07 13:40:00,
2013-05-07 09:42:00,56.7,43.4,30.15,ENE,68,9.8,9.8,61,0.00,,---,0.00,VWS V14.01,2013-05-07 13:42:00,
2013-05-07 09:47:00,56.8,39.9,30.15,ENE,68,3.4,7.6,53,0.00,,---,0.00,VWS V14.01,2013-05-07 13:47:00,
2013-05-07 09:50:00,56.7,43.4,30.15,East,90,4.0,9.8,61,0.00,,---,0.00,VWS V14.01,2013-05-07 13:50:00,
2013-05-07 09:52:00,57.2,39.8,30.15,East,90,2.7,7.6,52,0.00,,---,0.00,VWS V14.01,2013-05-07 13:52:00,
2013-05-07 09:57:00,57.6,38.6,30.15,ESE,112,3.1,8.7,49,0.00,,---,0.00,VWS V14.01,2013-05-07 13:57:00,
2013-05-07 10:00:00,57.2,39.8,30.15,ENE,68,2.5,7.6,52,0.00,,---,0.00,VWS V14.01,2013-05-07 14:00:00,
2013-05-07 10:02:00,57.7,37.1,30.15,East,90,7.4,8.7,46,0.00,,---,0.00,VWS V14.01,2013-05-07 14:02:00,
2013-05-07 10:07:00,57.9,37.3,30.15,ENE,68,4.5,8.7,46,0.00,,---,0.00,VWS V14.01,2013-05-07 14:07:00,
2013-05-07 10:10:00,57.7,37.1,30.15,East,90,7.4,8.7,46,0.00,,---,0.00,VWS V14.01,2013-05-07 14:10:00,
2013-05-07 10:12:00,58.3,37.0,30.15,East,90,1.6,8.7,45,0.00,,---,0.00,VWS V14.01,2013-05-07 14:12:00,
2013-05-07 10:17:00,58.8,37.0,30.15,ENE,68,2.5,3.8,44,0.00,,---,0.00,VWS V14.01,2013-05-07 14:17:00,
2013-05-07 10:20:00,58.3,37.0,30.15,East,90,1.6,8.7,45,0.00,,---,0.00,VWS V14.01,2013-05-07 14:20:00,
2013-05-07 10:22:00,59.2,34.9,30.15,East,90,4.0,5.8,40,0.00,,---,0.00,VWS V14.01,2013-05-07 14:22:00,
2013-05-07 10:28:00,59.7,36.0,30.15,East,90,5.6,5.6,41,0.00,,---,0.00,VWS V14.01,2013-05-07 14:28:00,
2013-05-07 10:30:00,59.2,34.9,30.15,East,90,4.0,5.8,40,0.00,,---,0.00,VWS V14.01,2013-05-07 14:30:00,
2013-05-07 10:33:00,59.5,33.3,30.15,NE,45,7.4,7.8,37,0.00,,---,0.00,VWS V14.01,2013-05-07 14:33:00,
2013-05-07 10:38:00,60.1,34.4,30.15,ENE,68,4.9,8.7,38,0.00,,---,0.00,VWS V14.01,2013-05-07 14:38:00,
2013-05-07 10:40:00,59.7,34.1,30.15,NE,45,7.8,8.7,38,0.00,,---,0.00,VWS V14.01,2013-05-07 14:40:00,
2013-05-07 10:43:00,60.6,34.2,30.15,SE,135,3.6,4.7,37,0.00,,---,0.00,VWS V14.01,2013-05-07 14:43:00,
2013-05-07 10:48:00,61.2,34.0,30.15,East,90,3.6,7.4,36,0.00,,---,0.00,VWS V14.01,2013-05-07 14:48:00,
2013-05-07 10:50:00,60.6,34.2,30.15,ESE,112,3.4,8.7,37,0.00,,---,0.00,VWS V14.01,2013-05-07 14:50:00,
2013-05-07 10:53:00,61.3,33.5,30.15,East,90,5.6,7.4,35,0.00,,---,0.00,VWS V14.01,2013-05-07 14:53:00,
2013-05-07 10:58:00,61.5,33.6,30.15,East,90,4.0,7.4,35,0.00,,---,0.00,VWS V14.01,2013-05-07 14:58:00,
2013-05-07 11:00:00,61.5,33.6,30.15,ESE,112,7.4,10.1,35,0.00,,---,0.00,VWS V14.01,2013-05-07 15:00:00,
2013-05-07 11:03:00,61.9,34.0,30.15,ENE,68,6.0,6.0,35,0.00,,---,0.00,VWS V14.01,2013-05-07 15:03:00,
2013-05-07 11:08:00,62.6,33.9,30.15,East,90,10.1,10.1,34,0.00,,---,0.00,VWS V14.01,2013-05-07 15:08:00,
2013-05-07 11:10:00,61.9,33.2,30.15,ENE,68,4.0,7.8,34,0.00,,---,0.00,VWS V14.01,2013-05-07 15:10:00,
2013-05-07 11:13:00,62.2,33.5,30.15,ENE,68,5.8,7.2,34,0.00,,---,0.00,VWS V14.01,2013-05-07 15:13:00,
2013-05-07 11:18:00,63.1,34.3,30.15,SSE,158,4.0,10.5,34,0.00,,---,0.00,VWS V14.01,2013-05-07 15:18:00,
2013-05-07 11:20:00,62.2,33.5,30.15,ESE,112,7.2,10.1,34,0.00,,---,0.00,VWS V14.01,2013-05-07 15:20:00,
2013-05-07 11:24:00,62.6,33.1,30.15,East,90,6.3,11.0,33,0.00,,---,0.00,VWS V14.01,2013-05-07 15:24:00,
2013-05-07 11:29:00,63.9,33.5,30.15,NE,45,3.6,11.0,32,0.00,,---,0.00,VWS V14.01,2013-05-07 15:29:00,
2013-05-07 11:30:00,63.0,33.4,30.15,East,90,6.9,10.5,33,0.00,,---,0.00,VWS V14.01,2013-05-07 15:30:00,
2013-05-07 11:34:00,64.0,32.8,30.15,ENE,68,10.5,10.5,31,0.00,,---,0.00,VWS V14.01,2013-05-07 15:34:00,
2013-05-07 11:39:00,65.5,33.3,30.15,South,180,4.9,10.5,30,0.00,,---,0.00,VWS V14.01,2013-05-07 15:39:00,
2013-05-07 11:40:00,64.0,33.6,30.15,ENE,68,6.5,11.0,32,0.00,,---,0.00,VWS V14.01,2013-05-07 15:40:00,
2013-05-07 11:44:00,64.8,30.9,30.12,ENE,68,3.4,7.8,28,0.00,,---,0.00,VWS V14.01,2013-05-07 15:44:00,
2013-05-07 11:49:00,65.1,31.2,30.12,ENE,68,12.3,12.3,28,0.00,,---,0.00,VWS V14.01,2013-05-07 15:49:00,
2013-05-07 11:50:00,64.9,31.1,30.12,NNE,22,5.4,10.5,28,0.00,,---,0.00,VWS V14.01,2013-05-07 15:50:00,
2013-05-07 11:54:00,65.1,30.3,30.12,SE,135,7.2,9.4,27,0.00,,---,0.00,VWS V14.01,2013-05-07 15:54:00,
2013-05-07 11:59:00,64.9,31.1,30.12,SE,135,8.5,10.7,28,0.00,,---,0.00,VWS V14.01,2013-05-07 15:59:00,
2013-05-07 12:00:00,65.7,31.7,30.12,ESE,112,7.2,12.3,28,0.00,,---,0.00,VWS V14.01,2013-05-07 16:00:00,
2013-05-07 12:04:00,65.7,31.7,30.12,ESE,112,4.9,7.6,28,0.00,,---,0.00,VWS V14.01,2013-05-07 16:04:00,
2013-05-07 12:09:00,66.2,31.3,30.12,ENE,68,7.2,11.0,27,0.00,,---,0.00,VWS V14.01,2013-05-07 16:09:00,
2013-05-07 12:10:00,65.5,30.6,30.12,NE,45,7.4,10.7,27,0.00,,---,0.00,VWS V14.01,2013-05-07 16:10:00,
2013-05-07 12:14:00,66.7,30.8,30.12,East,90,4.3,9.8,26,0.00,,---,0.00,VWS V14.01,2013-05-07 16:14:00,
2013-05-07 12:19:00,66.7,31.7,30.12,SE,135,4.9,12.1,27,0.00,,---,0.00,VWS V14.01,2013-05-07 16:19:00,
2013-05-07 12:20:00,66.7,31.7,30.12,ENE,68,9.8,11.0,27,0.00,,---,0.00,VWS V14.01,2013-05-07 16:20:00,
2013-05-07 12:25:00,67.6,31.6,30.12,ESE,112,7.8,8.7,26,0.00,,---,0.00,VWS V14.01,2013-05-07 16:25:00,
2013-05-07 12:30:00,67.6,31.6,30.12,East,90,7.8,10.7,26,0.00,,---,0.00,VWS V14.01,2013-05-07 16:30:00,
2013-05-07 12:35:00,67.5,30.4,30.12,East,90,3.6,7.6,25,0.00,,---,0.00,VWS V14.01,2013-05-07 16:35:00,
2013-05-07 12:40:00,67.8,30.7,30.12,ESE,112,6.5,8.1,25,0.00,,---,0.00,VWS V14.01,2013-05-07 16:40:00,
2013-05-07 12:45:00,68.9,31.7,30.09,SE,135,6.0,6.0,25,0.00,,---,0.00,VWS V14.01,2013-05-07 16:45:00,
2013-05-07 12:50:00,67.5,29.4,30.09,SE,135,5.4,12.8,24,0.00,,---,0.00,VWS V14.01,2013-05-07 16:50:00,
2013-05-07 12:55:00,67.6,30.6,30.09,East,90,6.5,8.5,25,0.00,,---,0.00,VWS V14.01,2013-05-07 16:55:00,
2013-05-07 13:00:00,67.6,30.6,30.09,ENE,68,8.5,9.2,25,0.00,,---,0.00,VWS V14.01,2013-05-07 17:00:00,
2013-05-07 13:05:00,68.5,30.4,30.09,NE,45,4.3,8.5,24,0.00,,---,0.00,VWS V14.01,2013-05-07 17:05:00,
2013-05-07 13:10:00,68.4,30.2,30.09,NNE,22,4.0,10.7,24,0.00,,---,0.00,VWS V14.01,2013-05-07 17:10:00,
2013-05-07 13:15:00,68.7,30.5,30.09,ESE,112,10.5,10.5,24,0.00,,---,0.00,VWS V14.01,2013-05-07 17:15:00,
2013-05-07 13:20:00,68.5,30.4,30.09,NNE,22,2.9,10.7,24,0.00,,---,0.00,VWS V14.01,2013-05-07 17:20:00,
2013-05-07 13:21:00,68.0,29.9,30.09,SE,135,8.1,10.7,24,0.00,,---,0.00,VWS V14.01,2013-05-07 17:21:00,
2013-05-07 13:26:00,68.5,30.4,30.09,East,90,6.3,8.7,24,0.00,,---,0.00,VWS V14.01,2013-05-07 17:26:00,
2013-05-07 13:30:00,68.0,29.9,30.09,East,90,8.7,10.7,24,0.00,,---,0.00,VWS V14.01,2013-05-07 17:30:00,
2013-05-07 13:31:00,68.5,30.4,30.06,SE,135,7.6,11.0,24,0.00,,---,0.00,VWS V14.01,2013-05-07 17:31:00,
2013-05-07 13:36:00,68.7,30.5,30.06,East,90,5.6,13.6,24,0.00,,---,0.00,VWS V14.01,2013-05-07 17:36:00,
2013-05-07 13:40:00,68.7,30.5,30.06,East,90,13.6,13.6,24,0.00,,---,0.00,VWS V14.01,2013-05-07 17:40:00,
2013-05-07 13:41:00,68.7,29.5,30.06,East,90,3.1,13.6,23,0.00,,---,0.00,VWS V14.01,2013-05-07 17:41:00,
2013-05-07 13:46:00,68.9,29.6,30.09,NE,45,4.9,9.8,23,0.00,,---,0.00,VWS V14.01,2013-05-07 17:46:00,
2013-05-07 13:50:00,68.9,29.6,30.09,ENE,68,5.8,13.6,23,0.00,,---,0.00,VWS V14.01,2013-05-07 17:50:00,
2013-05-07 13:51:00,69.6,30.2,30.09,NE,45,5.8,11.9,23,0.00,,---,0.00,VWS V14.01,2013-05-07 17:51:00,
2013-05-07 13:56:00,68.5,29.3,30.09,ESE,112,2.7,12.8,23,0.00,,---,0.00,VWS V14.01,2013-05-07 17:56:00,
2013-05-07 14:00:00,69.3,29.9,30.09,East,90,7.4,11.9,23,0.00,,---,0.00,VWS V14.01,2013-05-07 18:00:00,
2013-05-07 14:01:00,68.7,29.5,30.09,South,180,3.8,12.8,23,0.00,,---,0.00,VWS V14.01,2013-05-07 18:01:00,
2013-05-07 14:06:00,68.4,29.1,30.09,SE,135,7.6,9.8,23,0.00,,---,0.00,VWS V14.01,2013-05-07 18:06:00,
2013-05-07 14:10:00,68.7,29.5,30.09,ESE,112,4.3,12.8,23,0.00,,---,0.00,VWS V14.01,2013-05-07 18:10:00,
2013-05-07 14:11:00,68.0,28.9,30.09,NE,45,6.0,10.1,23,0.00,,---,0.00,VWS V14.01,2013-05-07 18:11:00,
2013-05-07 14:16:00,67.8,29.7,30.09,ESE,112,9.6,9.6,24,0.00,,---,0.00,VWS V14.01,2013-05-07 18:16:00,
2013-05-07 14:20:00,68.0,28.9,30.09,SE,135,3.6,10.1,23,0.00,,---,0.00,VWS V14.01,2013-05-07 18:20:00,
2013-05-07 14:22:00,66.7,29.8,30.09,East,90,3.6,10.1,25,0.00,,---,0.00,VWS V14.01,2013-05-07 18:22:00,
2013-05-07 14:27:00,65.5,34.9,30.09,East,90,2.5,10.1,32,0.00,,---,0.00,VWS V14.01,2013-05-07 18:27:00,
2013-05-07 14:30:00,66.6,29.7,30.09,East,90,6.5,10.1,25,0.00,,---,0.00,VWS V14.01,2013-05-07 18:30:00,
2013-05-07 14:32:00,64.4,36.2,30.09,ESE,112,3.4,10.1,35,0.04,,---,0.04,VWS V14.01,2013-05-07 18:32:00,
2013-05-07 14:37:00,64.0,38.6,30.09,East,90,4.9,6.5,39,0.04,,---,0.04,VWS V14.01,2013-05-07 18:37:00,
2013-05-07 14:40:00,64.0,36.6,30.09,East,90,3.4,10.1,36,0.04,,---,0.04,VWS V14.01,2013-05-07 18:40:00,
2013-05-07 14:42:00,63.9,39.7,30.12,SE,135,4.0,8.5,41,0.04,,---,0.04,VWS V14.01,2013-05-07 18:42:00,
2013-05-07 14:47:00,64.9,43.7,30.12,North,0,1.3,4.3,46,0.04,,---,0.04,VWS V14.01,2013-05-07 18:47:00,
2013-05-07 14:50:00,63.9,39.7,30.12,SE,135,4.3,8.5,41,0.04,,---,0.04,VWS V14.01,2013-05-07 18:50:00,
2013-05-07 14:52:00,64.9,41.9,30.12,ENE,68,7.2,7.6,43,0.04,,---,0.04,VWS V14.01,2013-05-07 18:52:00,
2013-05-07 14:57:00,65.8,43.3,30.09,East,90,5.6,7.2,44,0.04,,---,0.04,VWS V14.01,2013-05-07 18:57:00,
2013-05-07 15:00:00,65.1,41.5,30.12,East,90,6.7,7.6,42,0.04,,---,0.04,VWS V14.01,2013-05-07 19:00:00,
2013-05-07 15:02:00,66.6,40.2,30.09,SE,135,2.2,7.8,38,0.04,,---,0.04,VWS V14.01,2013-05-07 19:02:00,
2013-05-07 15:07:00,66.4,37.2,30.09,ENE,68,6.5,10.3,34,0.04,,---,0.04,VWS V14.01,2013-05-07 19:07:00,
2013-05-07 15:10:00,66.6,40.2,30.09,ESE,112,4.7,7.8,38,0.04,,---,0.04,VWS V14.01,2013-05-07 19:10:00,
2013-05-07 15:12:00,66.4,37.2,30.06,ENE,68,2.9,10.3,34,0.04,,---,0.04,VWS V14.01,2013-05-07 19:12:00,
2013-05-07 15:17:00,67.1,37.8,30.06,ENE,68,3.8,6.0,34,0.04,,---,0.04,VWS V14.01,2013-05-07 19:17:00,
2013-05-07 15:20:00,66.4,37.2,30.06,ENE,68,2.9,10.3,34,0.04,,---,0.04,VWS V14.01,2013-05-07 19:20:00,
2013-05-07 15:22:00,67.1,37.1,30.06,East,90,7.2,7.2,33,0.04,,---,0.04,VWS V14.01,2013-05-07 19:22:00,
2013-05-07 15:28:00,67.1,37.1,30.06,ESE,112,5.4,7.2,33,0.04,,---,0.04,VWS V14.01,2013-05-07 19:28:00,
2013-05-07 15:30:00,67.1,37.1,30.06,East,90,7.2,7.2,33,0.04,,---,0.04,VWS V14.01,2013-05-07 19:30:00,
2013-05-07 15:33:00,67.3,36.4,30.06,NE,45,6.3,6.3,32,0.00,,---,0.04,VWS V14.01,2013-05-07 19:33:00,
2013-05-07 15:38:00,67.3,35.6,30.06,SE,135,3.6,10.1,31,0.00,,---,0.04,VWS V14.01,2013-05-07 19:38:00,
2013-05-07 15:40:00,67.3,36.4,30.06,East,90,6.3,13.0,32,0.04,,---,0.04,VWS V14.01,2013-05-07 19:40:00,
2013-05-07 15:43:00,67.3,35.6,30.06,East,90,3.1,3.8,31,0.00,,---,0.04,VWS V14.01,2013-05-07 19:43:00,
2013-05-07 15:48:00,66.7,33.5,30.06,SSE,158,8.1,9.8,29,0.00,,---,0.04,VWS V14.01,2013-05-07 19:48:00,
2013-05-07 15:50:00,67.1,34.7,30.06,East,90,3.8,10.1,30,0.00,,---,0.04,VWS V14.01,2013-05-07 19:50:00,
2013-05-07 15:53:00,66.6,34.2,30.06,ESE,112,7.2,8.5,30,0.00,,---,0.04,VWS V14.01,2013-05-07 19:53:00,
2013-05-07 15:58:00,66.4,34.9,30.06,East,90,6.5,10.3,31,0.00,,---,0.04,VWS V14.01,2013-05-07 19:58:00,
2013-05-07 16:00:00,66.6,34.2,30.06,ENE,68,7.8,11.4,30,0.00,,---,0.04,VWS V14.01,2013-05-07 20:00:00,
2013-05-07 16:03:00,66.6,35.0,30.06,ENE,68,3.1,4.7,31,0.00,,---,0.04,VWS V14.01,2013-05-07 20:03:00,
2013-05-07 16:08:00,66.6,35.0,30.06,East,90,7.6,12.5,31,0.00,,---,0.04,VWS V14.01,2013-05-07 20:08:00,
2013-05-07 16:10:00,66.4,34.9,30.06,ESE,112,2.7,10.5,31,0.00,,---,0.04,VWS V14.01,2013-05-07 20:10:00,
2013-05-07 16:13:00,66.9,35.3,30.06,East,90,5.6,5.6,31,0.00,,---,0.04,VWS V14.01,2013-05-07 20:13:00,
2013-05-07 16:18:00,67.1,34.7,30.06,South,180,3.4,7.2,30,0.00,,---,0.04,VWS V14.01,2013-05-07 20:18:00,
2013-05-07 16:20:00,66.7,35.2,30.06,East,90,3.8,12.5,31,0.00,,---,0.04,VWS V14.01,2013-05-07 20:20:00,
2013-05-07 16:24:00,66.7,33.5,30.06,East,90,5.4,12.1,29,0.00,,---,0.04,VWS V14.01,2013-05-07 20:24:00,
2013-05-07 16:29:00,66.6,33.3,30.06,East,90,9.8,12.1,29,0.00,,---,0.04,VWS V14.01,2013-05-07 20:29:00,
2013-05-07 16:30:00,66.9,33.7,30.06,SE,135,6.3,10.5,29,0.00,,---,0.04,VWS V14.01,2013-05-07 20:30:00,
2013-05-07 16:34:00,66.7,33.5,30.06,East,90,5.6,7.2,29,0.00,,---,0.04,VWS V14.01,2013-05-07 20:34:00,
2013-05-07 16:39:00,66.7,33.5,30.06,South,180,3.4,8.5,29,0.00,,---,0.04,VWS V14.01,2013-05-07 20:39:00,
2013-05-07 16:40:00,66.7,33.5,30.06,East,90,3.4,12.1,29,0.00,,---,0.04,VWS V14.01,2013-05-07 20:40:00,
2013-05-07 16:44:00,66.9,33.7,30.06,ESE,112,5.4,5.4,29,0.00,,---,0.04,VWS V14.01,2013-05-07 20:44:00,
2013-05-07 16:49:00,67.1,33.8,30.06,SE,135,3.6,6.5,29,0.00,,---,0.04,VWS V14.01,2013-05-07 20:49:00,
2013-05-07 16:50:00,66.7,33.5,30.06,SSE,158,3.4,10.3,29,0.00,,---,0.04,VWS V14.01,2013-05-07 20:50:00,
2013-05-07 16:54:00,67.1,32.9,30.06,ENE,68,5.6,7.4,28,0.00,,---,0.04,VWS V14.01,2013-05-07 20:54:00,
2013-05-07 16:59:00,66.9,31.9,30.06,East,90,6.3,10.1,27,0.00,,---,0.04,VWS V14.01,2013-05-07 20:59:00,
2013-05-07 17:00:00,67.1,32.9,30.06,SE,135,5.4,10.1,28,0.00,,---,0.04,VWS V14.01,2013-05-07 21:00:00,
2013-05-07 17:04:00,67.1,32.0,30.06,ENE,68,10.7,10.7,27,0.00,,---,0.04,VWS V14.01,2013-05-07 21:04:00,
2013-05-07 17:09:00,67.1,32.0,30.06,ENE,68,3.1,10.7,27,0.00,,---,0.04,VWS V14.01,2013-05-07 21:09:00,
2013-05-07 17:10:00,67.3,33.1,30.06,East,90,4.0,10.1,28,0.00,,---,0.04,VWS V14.01,2013-05-07 21:10:00,
2013-05-07 17:14:00,67.1,32.0,30.06,SE,135,5.6,5.6,27,0.00,,---,0.04,VWS V14.01,2013-05-07 21:14:00,
2013-05-07 17:20:00,67.1,32.0,30.06,ESE,112,6.0,9.4,27,0.00,,---,0.04,VWS V14.01,2013-05-07 21:20:00,
2013-05-07 17:25:00,66.9,31.9,30.06,ESE,112,4.3,8.7,27,0.00,,---,0.04,VWS V14.01,2013-05-07 21:25:00,
2013-05-07 17:30:00,67.1,32.0,30.06,East,90,8.1,8.7,27,0.00,,---,0.04,VWS V14.01,2013-05-07 21:30:00,
2013-05-07 17:35:00,66.7,31.7,30.06,East,90,5.8,10.1,27,0.00,,---,0.04,VWS V14.01,2013-05-07 21:35:00,
2013-05-07 17:40:00,66.7,31.7,30.06,ESE,112,7.2,10.1,27,0.00,,---,0.04,VWS V14.01,2013-05-07 21:40:00,
2013-05-07 17:45:00,66.6,32.5,30.06,ENE,68,4.3,9.6,28,0.00,,---,0.04,VWS V14.01,2013-05-07 21:45:00,
2013-05-07 17:50:00,66.6,32.5,30.06,ENE,68,5.6,10.5,28,0.00,,---,0.04,VWS V14.01,2013-05-07 21:50:00,
2013-05-07 17:55:00,66.6,32.5,30.06,ESE,112,4.3,9.6,28,0.00,,---,0.04,VWS V14.01,2013-05-07 21:55:00,
2013-05-07 18:00:00,66.4,32.3,30.03,East,90,8.5,9.6,28,0.00,,---,0.04,VWS V14.01,2013-05-07 22:00:00,
2013-05-07 18:06:00,66.4,32.3,30.03,East,90,4.0,7.4,28,0.00,,---,0.04,VWS V14.01,2013-05-07 22:06:00,
2013-05-07 18:10:00,66.4,32.3,30.03,ENE,68,4.9,9.6,28,0.00,,---,0.04,VWS V14.01,2013-05-07 22:10:00,
2013-05-07 18:11:00,66.2,32.2,30.03,ENE,68,7.6,9.4,28,0.00,,---,0.04,VWS V14.01,2013-05-07 22:11:00,
2013-05-07 18:16:00,66.2,33.0,30.03,ESE,112,6.0,6.5,29,0.00,,---,0.04,VWS V14.01,2013-05-07 22:16:00,
2013-05-07 18:20:00,66.4,33.2,30.03,East,90,4.7,10.1,29,0.00,,---,0.04,VWS V14.01,2013-05-07 22:20:00,
2013-05-07 18:21:00,66.2,33.0,30.03,East,90,4.7,7.4,29,0.00,,---,0.04,VWS V14.01,2013-05-07 22:21:00,
2013-05-07 18:26:00,66.2,33.0,30.03,East,90,3.4,8.5,29,0.00,,---,0.04,VWS V14.01,2013-05-07 22:26:00,
2013-05-07 18:30:00,66.2,33.0,30.03,ESE,112,3.1,7.4,29,0.00,,---,0.04,VWS V14.01,2013-05-07 22:30:00,
2013-05-07 18:31:00,66.0,33.7,30.03,East,90,3.6,8.5,30,0.00,,---,0.04,VWS V14.01,2013-05-07 22:31:00,
2013-05-07 18:36:00,66.0,33.7,30.03,East,90,7.4,8.7,30,0.00,,---,0.04,VWS V14.01,2013-05-07 22:36:00,
2013-05-07 18:40:00,66.0,33.7,30.03,ENE,68,3.4,8.5,30,0.00,,---,0.04,VWS V14.01,2013-05-07 22:40:00,
2013-05-07 18:41:00,66.0,33.7,30.03,ENE,68,9.8,9.8,30,0.00,,---,0.04,VWS V14.01,2013-05-07 22:41:00,
2013-05-07 18:46:00,65.8,34.4,30.03,ENE,68,5.4,8.7,31,0.00,,---,0.04,VWS V14.01,2013-05-07 22:46:00,
2013-05-07 18:50:00,66.0,34.5,30.03,ENE,68,5.8,9.8,31,0.00,,---,0.04,VWS V14.01,2013-05-07 22:50:00,
2013-05-07 18:51:00,65.8,34.4,30.03,East,90,3.6,8.7,31,0.00,,---,0.04,VWS V14.01,2013-05-07 22:51:00,
2013-05-07 18:56:00,65.8,34.4,30.03,East,90,5.8,7.6,31,0.00,,---,0.04,VWS V14.01,2013-05-07 22:56:00,
2013-05-07 19:00:00,65.8,34.4,30.03,ENE,68,2.7,8.7,31,0.00,,---,0.04,VWS V14.01,2013-05-07 23:00:00,
2013-05-07 19:01:00,65.7,34.2,30.06,NE,45,4.9,9.8,31,0.00,,---,0.04,VWS V14.01,2013-05-07 23:01:00,
2013-05-07 19:06:00,65.7,34.2,30.06,East,90,4.0,8.1,31,0.00,,---,0.04,VWS V14.01,2013-05-07 23:06:00,
2013-05-07 19:10:00,65.7,34.2,30.06,NE,45,4.3,9.8,31,0.00,,---,0.04,VWS V14.01,2013-05-07 23:10:00,
2013-05-07 19:12:00,65.7,35.0,30.06,ESE,112,8.7,8.7,32,0.00,,---,0.04,VWS V14.01,2013-05-07 23:12:00,
2013-05-07 19:17:00,65.5,34.9,30.06,NE,45,4.3,6.3,32,0.00,,---,0.04,VWS V14.01,2013-05-07 23:17:00,
2013-05-07 19:20:00,65.7,35.0,30.06,East,90,3.4,8.7,32,0.00,,---,0.04,VWS V14.01,2013-05-07 23:20:00,
2013-05-07 19:22:00,65.3,34.7,30.06,East,90,6.0,8.5,32,0.00,,---,0.04,VWS V14.01,2013-05-07 23:22:00,
2013-05-07 19:27:00,65.1,34.6,30.06,East,90,5.4,7.8,32,0.00,,---,0.04,VWS V14.01,2013-05-07 23:27:00,
2013-05-07 19:30:00,65.3,34.7,30.06,East,90,4.0,8.5,32,0.00,,---,0.04,VWS V14.01,2013-05-07 23:30:00,
2013-05-07 19:32:00,64.9,35.2,30.06,East,90,4.0,7.8,33,0.00,,---,0.04,VWS V14.01,2013-05-07 23:32:00,
2013-05-07 19:37:00,64.8,35.0,30.06,ENE,68,3.4,6.3,33,0.00,,---,0.04,VWS V14.01,2013-05-07 23:37:00,
2013-05-07 19:40:00,64.8,35.0,30.06,East,90,4.9,7.8,33,0.00,,---,0.04,VWS V14.01,2013-05-07 23:40:00,
2013-05-07 19:42:00,64.6,34.8,30.06,NNE,22,5.4,7.4,33,0.00,,---,0.04,VWS V14.01,2013-05-07 23:42:00,
2013-05-07 19:47:00,64.4,34.7,30.06,ENE,68,4.3,7.6,33,0.00,,---,0.04,VWS V14.01,2013-05-07 23:47:00,
2013-05-07 19:50:00,64.6,34.8,30.06,East,90,6.0,7.4,33,0.00,,---,0.04,VWS V14.01,2013-05-07 23:50:00,
2013-05-07 19:52:00,64.2,35.3,30.06,East,90,6.3,7.8,34,0.00,,---,0.04,VWS V14.01,2013-05-07 23:52:00,
2013-05-07 19:57:00,63.9,35.0,30.06,ENE,68,4.9,7.8,34,0.00,,---,0.04,VWS V14.01,2013-05-07 23:57:00,
2013-05-07 20:00:00,64.2,35.3,30.06,East,90,5.4,7.8,34,0.00,,---,0.04,VWS V14.01,2013-05-08 00:00:00,
2013-05-07 20:02:00,63.7,34.8,30.06,East,90,6.5,8.1,34,0.00,,---,0.04,VWS V14.01,2013-05-08 00:02:00,
2013-05-07 20:07:00,63.7,34.8,30.06,East,90,4.0,10.7,34,0.00,,---,0.04,VWS V14.01,2013-05-08 00:07:00,
2013-05-07 20:10:00,63.7,34.8,30.06,East,90,6.5,8.1,34,0.00,,---,0.04,VWS V14.01,2013-05-08 00:10:00,
2013-05-07 20:12:00,63.5,34.7,30.06,East,90,3.6,3.6,34,0.00,,---,0.04,VWS V14.01,2013-05-08 00:12:00,
2013-05-07 20:18:00,63.3,34.5,30.06,ENE,68,6.0,7.6,34,0.00,,---,0.04,VWS V14.01,2013-05-08 00:18:00,
2013-05-07 20:20:00,63.5,34.7,30.06,ESE,112,2.7,10.7,34,0.00,,---,0.04,VWS V14.01,2013-05-08 00:20:00,
2013-05-07 20:23:00,63.1,35.1,30.06,East,90,3.4,5.8,35,0.00,,---,0.04,VWS V14.01,2013-05-08 00:23:00,
2013-05-07 20:28:00,63.1,35.1,30.06,East,90,4.7,8.7,35,0.00,,---,0.04,VWS V14.01,2013-05-08 00:28:00,
2013-05-07 20:30:00,63.1,34.3,30.06,SE,135,4.9,7.8,34,0.00,,---,0.04,VWS V14.01,2013-05-08 00:30:00,
2013-05-07 20:33:00,63.0,34.9,30.06,SE,135,5.8,5.8,35,0.00,,---,0.04,VWS V14.01,2013-05-08 00:33:00,
2013-05-07 20:38:00,63.0,34.9,30.06,East,90,5.8,8.1,35,0.00,,---,0.04,VWS V14.01,2013-05-08 00:38:00,
2013-05-07 20:40:00,63.0,34.9,30.06,South,180,3.8,8.7,35,0.00,,---,0.04,VWS V14.01,2013-05-08 00:40:00,
2013-05-07 20:43:00,62.8,34.8,30.06,East,90,2.9,4.9,35,0.00,,---,0.04,VWS V14.01,2013-05-08 00:43:00,
2013-05-07 20:48:00,62.8,34.8,30.06,ENE,68,5.6,5.6,35,0.00,,---,0.04,VWS V14.01,2013-05-08 00:48:00,
2013-05-07 20:50:00,62.8,34.8,30.06,ENE,68,4.9,8.1,35,0.00,,---,0.04,VWS V14.01,2013-05-08 00:50:00,
2013-05-07 20:53:00,62.6,34.6,30.06,East,90,4.9,4.9,35,0.00,,---,0.04,VWS V14.01,2013-05-08 00:53:00,
2013-05-07 20:58:00,62.6,34.6,30.06,ENE,68,4.9,6.7,35,0.00,,---,0.04,VWS V14.01,2013-05-08 00:58:00,
2013-05-07 21:00:00,62.6,34.6,30.06,East,90,3.4,6.0,35,0.00,,---,0.04,VWS V14.01,2013-05-08 01:00:00,
2013-05-07 21:03:00,62.4,35.1,30.06,ENE,68,5.6,7.6,36,0.00,,---,0.04,VWS V14.01,2013-05-08 01:03:00,
2013-05-07 21:08:00,62.2,35.0,30.06,ENE,68,3.8,8.7,36,0.00,,---,0.04,VWS V14.01,2013-05-08 01:08:00,
2013-05-07 21:10:00,62.4,35.1,30.06,East,90,2.7,7.2,36,0.00,,---,0.04,VWS V14.01,2013-05-08 01:10:00,
2013-05-07 21:13:00,62.2,35.7,30.06,East,90,7.6,9.6,37,0.00,,---,0.04,VWS V14.01,2013-05-08 01:13:00,
2013-05-07 21:18:00,62.1,35.5,30.06,NNE,22,3.1,9.6,37,0.00,,---,0.04,VWS V14.01,2013-05-08 01:18:00,
2013-05-07 21:20:00,62.2,35.7,30.06,ENE,68,3.4,8.7,37,0.00,,---,0.04,VWS V14.01,2013-05-08 01:20:00,
2013-05-07 21:24:00,61.9,36.0,30.06,ENE,68,3.4,6.9,38,0.00,,---,0.04,VWS V14.01,2013-05-08 01:24:00,
2013-05-07 21:29:00,61.9,36.0,30.06,ENE,68,3.8,6.9,38,0.00,,---,0.04,VWS V14.01,2013-05-08 01:29:00,
2013-05-07 21:30:00,61.9,36.0,30.06,ENE,68,5.6,9.6,38,0.00,,---,0.04,VWS V14.01,2013-05-08 01:30:00,
2013-05-07 21:34:00,61.9,36.0,30.06,ESE,112,3.6,5.6,38,0.00,,---,0.04,VWS V14.01,2013-05-08 01:34:00,
2013-05-07 21:39:00,61.9,36.0,30.06,East,90,3.6,6.5,38,0.00,,---,0.04,VWS V14.01,2013-05-08 01:39:00,
2013-05-07 21:40:00,61.9,36.0,30.06,East,90,5.4,10.1,38,0.00,,---,0.04,VWS V14.01,2013-05-08 01:40:00,
2013-05-07 21:44:00,61.9,36.7,30.06,ENE,68,6.5,6.5,39,0.00,,---,0.04,VWS V14.01,2013-05-08 01:44:00,
2013-05-07 21:49:00,61.9,36.7,30.06,East,90,2.9,6.5,39,0.00,,---,0.04,VWS V14.01,2013-05-08 01:49:00,
2013-05-07 21:50:00,61.9,36.7,30.06,East,90,3.4,6.5,39,0.00,,---,0.04,VWS V14.01,2013-05-08 01:50:00,
2013-05-07 21:54:00,61.9,36.7,30.06,ENE,68,6.5,10.5,39,0.00,,---,0.04,VWS V14.01,2013-05-08 01:54:00,
2013-05-07 21:59:00,61.9,36.0,30.06,ENE,68,3.8,12.1,38,0.00,,---,0.04,VWS V14.01,2013-05-08 01:59:00,
2013-05-07 22:00:00,61.9,36.7,30.06,NNE,22,10.5,10.5,39,0.00,,---,0.04,VWS V14.01,2013-05-08 02:00:00,
2013-05-07 22:04:00,61.9,36.0,30.06,ENE,68,5.8,7.8,38,0.00,,---,0.04,VWS V14.01,2013-05-08 02:04:00,
2013-05-07 22:09:00,61.7,35.9,30.06,ENE,68,5.8,7.8,38,0.00,,---,0.04,VWS V14.01,2013-05-08 02:09:00,
2013-05-07 22:10:00,61.9,36.0,30.06,ESE,112,6.3,12.1,38,0.00,,---,0.04,VWS V14.01,2013-05-08 02:10:00,
2013-05-07 22:14:00,61.7,36.5,30.06,NE,45,4.3,7.2,39,0.00,,---,0.04,VWS V14.01,2013-05-08 02:14:00,
2013-05-07 22:19:00,61.3,37.5,30.06,East,90,8.1,8.1,41,0.00,,---,0.04,VWS V14.01,2013-05-08 02:19:00,
2013-05-07 22:20:00,61.7,36.5,30.06,East,90,3.6,7.8,39,0.00,,---,0.04,VWS V14.01,2013-05-08 02:20:00,
2013-05-07 22:24:00,61.0,38.9,30.06,ENE,68,4.0,6.5,44,0.00,,---,0.04,VWS V14.01,2013-05-08 02:24:00,
2013-05-07 22:30:00,61.0,39.5,30.06,ENE,68,3.6,6.5,45,0.05,,---,0.09,VWS V14.01,2013-05-08 02:30:00,
2013-05-07 22:35:00,60.8,40.5,30.06,East,90,4.7,6.3,47,0.05,,---,0.09,VWS V14.01,2013-05-08 02:35:00,
2013-05-07 22:40:00,60.8,41.0,30.06,East,90,2.5,6.3,48,0.05,,---,0.09,VWS V14.01,2013-05-08 02:40:00,
2013-05-07 22:45:00,60.6,41.9,30.06,East,90,3.8,5.6,50,0.05,,---,0.09,VWS V14.01,2013-05-08 02:45:00,
2013-05-07 22:50:00,60.6,41.9,30.06,ENE,68,3.1,5.6,50,0.05,,---,0.09,VWS V14.01,2013-05-08 02:50:00,
2013-05-07 22:55:00,60.4,42.2,30.06,ENE,68,3.1,4.3,51,0.05,,---,0.09,VWS V14.01,2013-05-08 02:55:00,
2013-05-07 23:00:00,60.4,42.8,30.06,East,90,5.6,7.8,52,0.05,,---,0.09,VWS V14.01,2013-05-08 03:00:00,
2013-05-07 23:05:00,60.3,42.6,30.06,East,90,3.8,6.5,52,0.05,,---,0.09,VWS V14.01,2013-05-08 03:05:00,
2013-05-07 23:10:00,60.3,42.6,30.06,North,0,2.9,7.8,52,0.05,,---,0.09,VWS V14.01,2013-05-08 03:10:00,
2013-05-07 23:15:00,60.1,42.9,30.06,SE,135,2.9,4.0,53,0.05,,---,0.09,VWS V14.01,2013-05-08 03:15:00,
2013-05-07 23:20:00,60.1,43.9,30.06,NE,45,3.1,5.6,55,0.05,,---,0.09,VWS V14.01,2013-05-08 03:20:00,
2013-05-07 23:25:00,59.9,44.7,30.06,ENE,68,5.4,5.8,57,0.09,,---,0.13,VWS V14.01,2013-05-08 03:25:00,
2013-05-07 23:30:00,60.1,43.9,30.06,ESE,112,2.5,5.6,55,0.09,,---,0.13,VWS V14.01,2013-05-08 03:30:00,
2013-05-07 23:31:00,59.9,44.7,30.03,East,90,6.0,6.9,57,0.09,,---,0.13,VWS V14.01,2013-05-08 03:31:00,
2013-05-07 23:36:00,59.7,44.0,30.03,NE,45,4.3,9.6,56,0.04,,---,0.13,VWS V14.01,2013-05-08 03:36:00,
2013-05-07 23:40:00,59.7,44.5,30.03,East,90,4.3,6.9,57,0.09,,---,0.13,VWS V14.01,2013-05-08 03:40:00,
2013-05-07 23:41:00,59.7,44.0,30.03,ESE,112,3.8,9.6,56,0.04,,---,0.13,VWS V14.01,2013-05-08 03:41:00,
2013-05-07 23:46:00,59.7,44.5,30.03,ENE,68,7.4,8.1,57,0.04,,---,0.13,VWS V14.01,2013-05-08 03:46:00,
2013-05-07 23:50:00,59.7,44.0,30.03,East,90,3.6,9.6,56,0.04,,---,0.13,VWS V14.01,2013-05-08 03:50:00,
2013-05-07 23:51:00,59.7,44.5,30.03,East,90,7.6,10.1,57,0.04,,---,0.13,VWS V14.01,2013-05-08 03:51:00,
2013-05-07 23:56:00,59.5,43.8,30.03,East,90,2.9,4.0,56,0.04,,---,0.00,VWS V14.01,2013-05-08 03:56:00,